createdAt,value
2018-07-31T00:00:53.092Z,101141.67
2018-07-31T00:03:21.394Z,101143.34
2018-07-31T00:05:49.633Z,101141.78
2018-07-31T00:08:17.946Z,101150.73
2018-07-31T00:10:46.226Z,101142.24
2018-07-31T00:13:14.725Z,101138.05
2018-07-31T00:15:42.989Z,101147.14
2018-07-31T00:18:11.281Z,101141.58
2018-07-31T00:20:39.538Z,101139.52
2018-07-31T00:23:07.984Z,101141.02
2018-07-31T00:25:36.242Z,101136.33
2018-07-31T00:28:04.513Z,101134.22
2018-07-31T00:30:34.715Z,101142.16
2018-07-31T00:33:03.051Z,101140.34
2018-07-31T00:35:31.385Z,101141.00
2018-07-31T00:37:59.686Z,101138.78
2018-07-31T00:40:27.994Z,101139.85
2018-07-31T00:42:56.273Z,101141.92
2018-07-31T00:45:24.631Z,101143.34
2018-07-31T00:47:52.922Z,101143.98
2018-07-31T00:50:21.193Z,101139.85
2018-07-31T00:52:49.457Z,101139.98
2018-07-31T00:55:17.975Z,101143.05
2018-07-31T00:57:46.238Z,101141.13
2018-07-31T01:00:14.489Z,101141.11
2018-07-31T01:02:42.787Z,101146.59
2018-07-31T01:05:11.067Z,101139.15
2018-07-31T01:07:39.369Z,101140.25
2018-07-31T01:10:07.917Z,101138.33
2018-07-31T01:12:36.169Z,101145.17
2018-07-31T01:15:04.732Z,101143.91
2018-07-31T01:17:33.018Z,101137.22
2018-07-31T01:20:01.369Z,101133.13
2018-07-31T01:22:29.625Z,101133.52
2018-07-31T01:24:58.066Z,101135.09
2018-07-31T01:27:26.364Z,101132.18
2018-07-31T01:29:54.752Z,101133.80
2018-07-31T01:32:23.028Z,101121.94
2018-07-31T01:34:51.275Z,101122.02
2018-07-31T01:37:19.577Z,101119.65
2018-07-31T01:39:47.807Z,101120.16
2018-07-31T01:42:16.111Z,101119.34
2018-07-31T01:44:44.435Z,101120.16
2018-07-31T01:47:12.747Z,101121.27
2018-07-31T01:49:41.283Z,101117.92
2018-07-31T01:52:09.617Z,101119.69
2018-07-31T01:54:37.879Z,101108.11
2018-07-31T01:57:06.168Z,101112.01
2018-07-31T01:59:34.491Z,101112.88
2018-07-31T02:02:02.771Z,101118.27
2018-07-31T02:04:31.250Z,101114.41
2018-07-31T02:06:59.582Z,101114.38
2018-07-31T02:09:27.875Z,101098.71
2018-07-31T02:11:56.157Z,101099.34
2018-07-31T02:14:24.411Z,101098.89
2018-07-31T02:16:52.708Z,101105.06
2018-07-31T02:19:20.981Z,101099.90
2018-07-31T02:21:49.280Z,101097.66
2018-07-31T02:24:20.012Z,101096.49
2018-07-31T02:26:48.294Z,101092.70
2018-07-31T02:29:20.774Z,101101.45
2018-07-31T02:31:49.172Z,101100.14
2018-07-31T02:34:17.416Z,101095.46
2018-07-31T02:36:45.712Z,101098.52
2018-07-31T02:39:13.989Z,101099.07
2018-07-31T02:41:42.233Z,101092.80
2018-07-31T02:44:10.544Z,101092.53
2018-07-31T02:46:38.840Z,101095.22
2018-07-31T02:49:07.141Z,101090.26
2018-07-31T02:51:35.388Z,101091.88
2018-07-31T02:54:03.693Z,101092.29
2018-07-31T02:56:31.976Z,101096.14
2018-07-31T02:59:00.262Z,101094.07
2018-07-31T03:01:28.551Z,101092.08
2018-07-31T03:03:56.828Z,101092.62
2018-07-31T03:06:25.133Z,101096.23
2018-07-31T03:08:53.393Z,101097.61
2018-07-31T03:11:21.993Z,101094.37
2018-07-31T03:13:50.299Z,101093.03
2018-07-31T03:16:18.964Z,101091.16
2018-07-31T03:18:47.355Z,101090.09
2018-07-31T03:21:15.777Z,101089.81
2018-07-31T03:23:44.101Z,101087.61
2018-07-31T03:26:12.495Z,101087.31
2018-07-31T03:28:40.774Z,101091.95
2018-07-31T03:31:09.380Z,101105.97
2018-07-31T03:33:37.635Z,101099.69
2018-07-31T03:36:05.903Z,101101.89
2018-07-31T03:38:35.071Z,101115.35
2018-07-31T03:41:03.331Z,101116.51
2018-07-31T03:43:31.850Z,101119.04
2018-07-31T03:46:00.088Z,101115.22
2018-07-31T03:48:28.344Z,101122.48
2018-07-31T03:50:56.628Z,101115.63
2018-07-31T03:53:24.900Z,101114.52
2018-07-31T03:55:53.192Z,101117.22
2018-07-31T03:58:21.442Z,101120.35
2018-07-31T04:00:49.814Z,101119.30
2018-07-31T04:03:18.071Z,101118.47
2018-07-31T04:05:46.695Z,101118.74
2018-07-31T04:08:15.020Z,101121.45
2018-07-31T04:10:43.271Z,101121.90
2018-07-31T04:13:11.553Z,101115.57
2018-07-31T04:15:39.825Z,101124.98
2018-07-31T04:18:08.166Z,101123.03
2018-07-31T04:20:36.460Z,101119.15
2018-07-31T04:23:04.769Z,101111.14
2018-07-31T04:25:33.063Z,101117.42
2018-07-31T04:28:01.554Z,101118.98
2018-07-31T04:30:29.869Z,101122.20
2018-07-31T04:32:58.130Z,101130.09
2018-07-31T04:35:26.482Z,101119.02
2018-07-31T04:37:54.912Z,101122.51
2018-07-31T04:40:23.174Z,101119.34
2018-07-31T04:42:51.500Z,101120.00
2018-07-31T04:45:19.790Z,101121.89
2018-07-31T04:47:48.081Z,101122.57
2018-07-31T04:50:19.223Z,101125.88
2018-07-31T04:52:47.465Z,101122.50
2018-07-31T04:55:15.769Z,101113.36
2018-07-31T04:57:44.023Z,101113.84
2018-07-31T05:00:12.375Z,101112.22
2018-07-31T05:02:40.677Z,101115.81
2018-07-31T05:05:08.954Z,101117.92
2018-07-31T05:07:39.244Z,101120.72
2018-07-31T05:10:10.060Z,101123.30
2018-07-31T05:12:38.460Z,101125.23
2018-07-31T05:15:06.954Z,101131.83
2018-07-31T05:17:36.091Z,101133.72
2018-07-31T05:20:04.631Z,101132.49
2018-07-31T05:22:32.878Z,101141.55
2018-07-31T05:25:01.216Z,101138.00
2018-07-31T05:27:29.564Z,101143.91
2018-07-31T05:29:57.814Z,101149.22
2018-07-31T05:32:26.061Z,101160.06
2018-07-31T05:34:54.429Z,101161.52
2018-07-31T05:37:22.801Z,101155.69
2018-07-31T05:39:51.128Z,101159.60
2018-07-31T05:42:19.390Z,101154.59
2018-07-31T05:44:47.679Z,101159.11
2018-07-31T05:47:15.976Z,101155.03
2018-07-31T05:49:44.258Z,101154.83
2018-07-31T05:52:12.691Z,101152.03
2018-07-31T05:54:41.148Z,101153.48
2018-07-31T05:57:09.497Z,101155.55
2018-07-31T05:59:37.806Z,101150.58
2018-07-31T06:02:06.086Z,101154.72
2018-07-31T06:04:34.387Z,101154.44
2018-07-31T06:07:02.682Z,101160.09
2018-07-31T06:09:30.970Z,101165.48
2018-07-31T06:11:59.265Z,101164.41
2018-07-31T06:14:27.544Z,101160.02
2018-07-31T06:16:55.805Z,101166.44
2018-07-31T06:19:24.076Z,101173.53
2018-07-31T06:21:52.373Z,101181.65
2018-07-31T06:24:20.835Z,101184.30
2018-07-31T06:26:49.099Z,101175.16
2018-07-31T06:29:17.375Z,101181.09
2018-07-31T06:31:45.796Z,101179.65
2018-07-31T06:34:14.077Z,101179.37
2018-07-31T06:36:42.396Z,101167.93
2018-07-31T06:39:11.073Z,101172.09
2018-07-31T06:41:39.375Z,101168.69
2018-07-31T06:44:07.991Z,101173.02
2018-07-31T06:46:36.631Z,101174.45
2018-07-31T06:49:04.945Z,101175.16
2018-07-31T06:51:33.322Z,101171.44
2018-07-31T06:54:01.680Z,101176.64
2018-07-31T06:56:30.312Z,101173.55
2018-07-31T06:58:58.577Z,101176.28
2018-07-31T07:01:27.023Z,101180.25
2018-07-31T07:03:55.270Z,101183.61
2018-07-31T07:06:23.561Z,101189.53
2018-07-31T07:08:51.832Z,101192.85
2018-07-31T07:11:20.119Z,101191.29
2018-07-31T07:13:48.401Z,101194.80
2018-07-31T07:16:16.746Z,101200.78
2018-07-31T07:18:45.133Z,101192.97
2018-07-31T07:21:13.432Z,101181.98
2018-07-31T07:23:41.689Z,101177.97
2018-07-31T07:26:09.988Z,101178.83
2018-07-31T07:28:38.244Z,101177.28
2018-07-31T07:31:06.652Z,101171.38
2018-07-31T07:33:36.301Z,101177.13
2018-07-31T07:36:04.535Z,101172.67
2018-07-31T07:38:33.251Z,101171.83
2018-07-31T07:41:01.491Z,101176.09
2018-07-31T07:43:29.777Z,101166.95
2018-07-31T07:45:58.018Z,101167.52
2018-07-31T07:48:26.316Z,101165.38
2018-07-31T07:50:54.621Z,101163.90
2018-07-31T07:53:22.905Z,101175.34
2018-07-31T07:55:51.210Z,101166.42
2018-07-31T07:58:19.460Z,101165.24
2018-07-31T08:00:47.776Z,101168.75
2018-07-31T08:03:16.095Z,101176.98
2018-07-31T08:05:44.379Z,101172.25
2018-07-31T08:08:12.641Z,101173.30
2018-07-31T08:10:42.727Z,101174.16
2018-07-31T08:13:11.047Z,101176.20
2018-07-31T08:15:39.558Z,101180.02
2018-07-31T08:18:07.864Z,101186.63
2018-07-31T08:20:36.192Z,101189.91
2018-07-31T08:23:04.665Z,101180.91
2018-07-31T08:25:33.134Z,101179.68
2018-07-31T08:28:01.768Z,101176.78
2018-07-31T08:30:30.109Z,101178.71
2018-07-31T08:32:58.780Z,101178.08
2018-07-31T08:35:27.728Z,101180.81
2018-07-31T08:37:56.246Z,101175.69
2018-07-31T08:40:24.545Z,101179.23
2018-07-31T08:42:52.872Z,101179.42
2018-07-31T08:45:21.537Z,101179.23
2018-07-31T08:47:49.797Z,101179.06
2018-07-31T08:50:18.105Z,101190.91
2018-07-31T08:52:46.374Z,101180.38
2018-07-31T08:55:14.886Z,101195.86
2018-07-31T08:57:43.358Z,101195.56
2018-07-31T09:00:11.670Z,101193.36
2018-07-31T09:02:40.023Z,101189.63
2018-07-31T09:05:08.535Z,101189.44
2018-07-31T09:07:37.003Z,101192.92
2018-07-31T09:10:06.102Z,101187.55
2018-07-31T09:12:34.454Z,101195.56
2018-07-31T09:15:02.753Z,101191.92
2018-07-31T09:17:31.258Z,101193.08
2018-07-31T09:19:59.501Z,101193.55
2018-07-31T09:22:27.795Z,101190.91
2018-07-31T09:24:56.159Z,101194.29
2018-07-31T09:27:24.556Z,101193.02
2018-07-31T09:29:52.879Z,101186.83
2018-07-31T09:32:26.640Z,101181.47
2018-07-31T09:34:54.932Z,101175.11
2018-07-31T09:37:23.304Z,101175.27
2018-07-31T09:39:51.579Z,101173.31
2018-07-31T09:42:19.889Z,101170.33
2018-07-31T09:44:48.215Z,101162.50
2018-07-31T09:47:16.464Z,101161.71
2018-07-31T09:49:44.781Z,101171.96
2018-07-31T09:52:13.036Z,101187.14
2018-07-31T09:54:41.441Z,101186.59
2018-07-31T09:57:09.912Z,101178.44
2018-07-31T09:59:38.201Z,101183.48
2018-07-31T10:02:06.991Z,101178.42
2018-07-31T10:04:35.257Z,101182.20
2018-07-31T10:07:03.556Z,101179.78
2018-07-31T10:09:31.809Z,101185.11
2018-07-31T10:12:01.949Z,101186.16
2018-07-31T10:14:30.292Z,101184.53
2018-07-31T10:16:58.602Z,101195.98
2018-07-31T10:19:26.916Z,101187.56
2018-07-31T10:21:55.241Z,101192.87
2018-07-31T10:24:23.838Z,101192.21
2018-07-31T10:26:52.541Z,101190.78
2018-07-31T10:29:21.349Z,101188.18
2018-07-31T10:32:07.132Z,101196.06
2018-07-31T10:34:35.447Z,101200.34
2018-07-31T10:37:03.773Z,101199.08
2018-07-31T10:39:32.197Z,101192.40
2018-07-31T10:42:00.453Z,101190.31
2018-07-31T10:44:28.801Z,101195.88
2018-07-31T10:46:57.068Z,101196.11
2018-07-31T10:49:25.347Z,101191.75
2018-07-31T10:51:53.675Z,101182.50
2018-07-31T10:54:22.274Z,101179.00
2018-07-31T10:56:50.693Z,101171.58
2018-07-31T10:59:18.987Z,101192.52
2018-07-31T11:01:47.682Z,101184.83
2018-07-31T11:04:16.225Z,101181.64
2018-07-31T11:06:44.635Z,101179.68
2018-07-31T11:09:12.987Z,101171.52
2018-07-31T11:11:41.766Z,101179.20
2018-07-31T11:14:10.601Z,101177.75
2018-07-31T11:16:39.101Z,101177.06
2018-07-31T11:19:07.578Z,101186.03
2018-07-31T11:21:36.007Z,101185.01
2018-07-31T11:24:04.301Z,101181.91
2018-07-31T11:26:32.672Z,101194.80
2018-07-31T11:29:01.091Z,101181.88
2018-07-31T11:31:29.440Z,101189.08
2018-07-31T11:33:57.686Z,101179.76
2018-07-31T11:36:26.044Z,101192.66
2018-07-31T11:38:54.362Z,101187.49
2018-07-31T11:41:22.781Z,101195.50
2018-07-31T11:43:51.122Z,101187.88
2018-07-31T11:46:19.405Z,101202.11
2018-07-31T11:48:47.796Z,101193.20
2018-07-31T11:51:16.069Z,101194.55
2018-07-31T11:53:44.460Z,101197.50
2018-07-31T11:56:13.623Z,101194.16
2018-07-31T11:58:41.964Z,101196.16
2018-07-31T12:01:10.265Z,101198.92
2018-07-31T12:03:38.556Z,101196.25
2018-07-31T12:06:07.104Z,101193.22
2018-07-31T12:08:35.395Z,101191.44
2018-07-31T12:11:03.737Z,101200.53
2018-07-31T12:13:32.024Z,101195.90
2018-07-31T12:16:00.337Z,101201.88
2018-07-31T12:18:28.678Z,101202.32
2018-07-31T12:20:56.987Z,101215.68
2018-07-31T12:23:31.901Z,101218.05
2018-07-31T12:26:00.147Z,101225.58
2018-07-31T12:28:28.455Z,101220.69
2018-07-31T12:30:56.773Z,101217.22
2018-07-31T12:33:25.052Z,101224.84
2018-07-31T12:35:53.371Z,101223.78
2018-07-31T12:38:22.078Z,101223.00
2018-07-31T12:40:50.327Z,101225.28
2018-07-31T12:43:18.598Z,101229.34
2018-07-31T12:45:46.975Z,101251.34
2018-07-31T12:48:15.325Z,101239.30
2018-07-31T12:50:43.685Z,101238.00
2018-07-31T12:53:12.059Z,101234.69
2018-07-31T12:55:40.357Z,101245.87
2018-07-31T12:58:08.610Z,101241.31
2018-07-31T13:00:37.386Z,101245.09
2018-07-31T13:03:06.095Z,101248.20
2018-07-31T13:05:34.449Z,101234.20
2018-07-31T13:08:02.759Z,101245.55
2018-07-31T13:10:31.006Z,101255.53
2018-07-31T13:12:59.356Z,101264.21
2018-07-31T13:15:27.760Z,101270.13
2018-07-31T13:17:56.506Z,101281.37
2018-07-31T13:20:24.924Z,101275.36
2018-07-31T13:22:53.836Z,101272.72
2018-07-31T13:25:22.086Z,101286.92
2018-07-31T13:27:50.974Z,101291.11
2018-07-31T13:30:19.341Z,101295.73
2018-07-31T13:32:47.650Z,101288.26
2018-07-31T13:35:15.935Z,101294.22
2018-07-31T13:37:44.210Z,101300.94
2018-07-31T13:40:12.564Z,101307.38
2018-07-31T13:42:40.911Z,101316.06
2018-07-31T13:45:09.175Z,101303.37
2018-07-31T13:47:37.496Z,101299.38
2018-07-31T13:50:05.790Z,101303.54
2018-07-31T13:52:34.094Z,101303.89
2018-07-31T13:55:02.675Z,101312.39
2018-07-31T13:57:31.189Z,101325.11
2018-07-31T13:59:59.527Z,101312.95
2018-07-31T14:02:27.827Z,101310.41
2018-07-31T14:04:56.158Z,101319.76
2018-07-31T14:07:24.419Z,101324.58
2018-07-31T14:09:52.736Z,101328.91
2018-07-31T14:12:21.027Z,101318.20
2018-07-31T14:14:50.152Z,101335.03
2018-07-31T14:17:20.260Z,101331.55
2018-07-31T14:19:48.618Z,101332.37
2018-07-31T14:22:16.982Z,101339.30
2018-07-31T14:24:45.309Z,101329.63
2018-07-31T14:27:13.616Z,101334.89
2018-07-31T14:29:41.861Z,101336.51
2018-07-31T14:32:10.151Z,101343.94
2018-07-31T14:34:38.459Z,101342.19
2018-07-31T14:37:06.777Z,101351.52
2018-07-31T14:39:35.313Z,101349.19
2018-07-31T14:42:10.291Z,101354.56
2018-07-31T14:44:38.625Z,101362.04
2018-07-31T14:47:06.999Z,101363.68
2018-07-31T14:49:35.282Z,101358.72
2018-07-31T14:52:10.130Z,101368.22
2018-07-31T14:54:38.619Z,101370.84
2018-07-31T14:57:07.138Z,101363.73
2018-07-31T14:59:35.482Z,101359.28
2018-07-31T15:02:04.102Z,101366.50
2018-07-31T15:04:32.470Z,101367.27
2018-07-31T15:07:00.793Z,101377.23
2018-07-31T15:09:29.141Z,101381.34
2018-07-31T15:11:57.551Z,101377.42
2018-07-31T15:14:25.842Z,101380.21
2018-07-31T15:16:54.155Z,101384.00
2018-07-31T15:19:22.420Z,101390.45
2018-07-31T15:21:50.711Z,101386.80
2018-07-31T15:24:19.040Z,101400.08
2018-07-31T15:26:47.365Z,101399.47
2018-07-31T15:29:15.672Z,101395.83
2018-07-31T15:31:44.032Z,101385.50
2018-07-31T15:34:12.474Z,101393.45
2018-07-31T15:36:40.776Z,101401.30
2018-07-31T15:39:11.915Z,101388.97
2018-07-31T15:41:40.658Z,101392.97
2018-07-31T15:44:09.149Z,101395.53
2018-07-31T15:46:37.458Z,101396.61
2018-07-31T15:49:05.925Z,101398.20
2018-07-31T15:51:34.366Z,101404.77
2018-07-31T15:54:03.740Z,101399.42
2018-07-31T15:56:32.277Z,101403.64
2018-07-31T15:59:00.556Z,101401.74
2018-07-31T16:01:29.578Z,101397.60
2018-07-31T16:03:58.559Z,101401.20
2018-07-31T16:06:27.152Z,101404.67
2018-07-31T16:08:55.429Z,101406.37
2018-07-31T16:11:23.693Z,101407.73
2018-07-31T16:13:52.078Z,101398.60
2018-07-31T16:16:20.377Z,101398.29
2018-07-31T16:18:48.707Z,101398.27
2018-07-31T16:21:16.963Z,101398.56
2018-07-31T16:23:45.332Z,101405.03
2018-07-31T16:26:13.681Z,101398.60
2018-07-31T16:28:42.486Z,101396.97
2018-07-31T16:31:10.852Z,101409.12
2018-07-31T16:33:39.345Z,101400.34
2018-07-31T16:36:07.646Z,101406.44
2018-07-31T16:38:36.032Z,101408.54
2018-07-31T16:41:04.364Z,101404.47
2018-07-31T16:43:32.710Z,101414.98
2018-07-31T16:46:01.100Z,101422.23
2018-07-31T16:48:29.413Z,101411.69
2018-07-31T16:50:57.707Z,101416.53
2018-07-31T16:53:26.007Z,101413.70
2018-07-31T16:55:54.303Z,101418.82
2018-07-31T16:58:22.649Z,101416.25
2018-07-31T17:00:51.031Z,101407.30
2018-07-31T17:03:19.332Z,101409.84
2018-07-31T17:05:47.651Z,101408.04
2018-07-31T17:08:15.985Z,101417.30
2018-07-31T17:10:44.420Z,101413.69
2018-07-31T17:13:12.680Z,101417.09
2018-07-31T17:15:41.085Z,101425.51
2018-07-31T17:18:10.444Z,101425.00
2018-07-31T17:20:38.816Z,101425.02
2018-07-31T17:23:07.232Z,101432.48
2018-07-31T17:25:35.714Z,101422.45
2018-07-31T17:28:04.249Z,101432.34
2018-07-31T17:30:32.809Z,101437.06
2018-07-31T17:33:01.066Z,101451.17
2018-07-31T17:35:29.383Z,101451.23
2018-07-31T17:37:57.808Z,101449.72
2018-07-31T17:40:26.100Z,101460.31
2018-07-31T17:42:54.366Z,101447.28
2018-07-31T17:45:22.619Z,101458.93
2018-07-31T17:47:50.904Z,101459.36
2018-07-31T17:50:19.493Z,101465.81
2018-07-31T17:52:47.893Z,101469.06
2018-07-31T17:55:16.208Z,101468.00
2018-07-31T17:57:44.602Z,101474.62
2018-07-31T18:00:12.878Z,101478.44
2018-07-31T18:02:41.414Z,101481.37
2018-07-31T18:05:09.735Z,101480.80
2018-07-31T18:07:38.009Z,101486.16
2018-07-31T18:10:06.402Z,101482.20
2018-07-31T18:12:34.862Z,101484.29
2018-07-31T18:15:03.232Z,101489.59
2018-07-31T18:17:32.539Z,101489.27
2018-07-31T18:20:00.889Z,101487.67
2018-07-31T18:22:29.149Z,101489.88
2018-07-31T18:24:57.450Z,101489.53
2018-07-31T18:27:25.728Z,101493.66
2018-07-31T18:29:54.338Z,101484.99
2018-07-31T18:32:22.614Z,101492.84
2018-07-31T18:34:50.969Z,101504.84
2018-07-31T18:37:19.265Z,101499.80
2018-07-31T18:39:47.627Z,101497.07
2018-07-31T18:42:15.974Z,101515.42
2018-07-31T18:44:44.246Z,101520.99
2018-07-31T18:47:12.565Z,101519.61
2018-07-31T18:49:40.933Z,101520.78
2018-07-31T18:52:09.325Z,101528.55
2018-07-31T18:54:37.576Z,101524.60
2018-07-31T18:57:05.850Z,101534.44
2018-07-31T18:59:34.267Z,101535.59
2018-07-31T19:02:03.578Z,101540.64
2018-07-31T19:04:32.051Z,101545.95
2018-07-31T19:07:00.415Z,101542.42
2018-07-31T19:09:28.954Z,101550.55
2018-07-31T19:11:57.224Z,101551.64
2018-07-31T19:14:25.646Z,101546.11
2018-07-31T19:16:54.004Z,101554.44
2018-07-31T19:19:22.330Z,101558.82
2018-07-31T19:21:50.581Z,101565.50
2018-07-31T19:24:18.884Z,101570.34
2018-07-31T19:26:47.189Z,101577.76
2018-07-31T19:29:15.463Z,101578.56
2018-07-31T19:31:43.817Z,101585.80
2018-07-31T19:34:12.199Z,101589.52
2018-07-31T19:36:40.666Z,101595.95
2018-07-31T19:39:09.498Z,101601.91
2018-07-31T19:41:37.826Z,101602.02
2018-07-31T19:44:06.416Z,101601.23
2018-07-31T19:46:34.729Z,101611.27
2018-07-31T19:49:03.051Z,101606.56
2018-07-31T19:51:31.406Z,101612.08
2018-07-31T19:54:00.092Z,101614.02
2018-07-31T19:56:28.616Z,101610.40
2018-07-31T19:58:56.987Z,101616.15
2018-07-31T20:01:25.321Z,101626.39
2018-07-31T20:03:53.630Z,101626.12
2018-07-31T20:06:21.986Z,101622.94
2018-07-31T20:08:50.308Z,101623.45
2018-07-31T20:11:18.641Z,101631.23
2018-07-31T20:13:47.014Z,101631.29
2018-07-31T20:16:15.293Z,101635.44
2018-07-31T20:18:43.634Z,101637.97
2018-07-31T20:21:11.951Z,101637.47
2018-07-31T20:23:40.480Z,101641.64
2018-07-31T20:26:08.967Z,101643.87
2018-07-31T20:28:37.240Z,101645.57
2018-07-31T20:31:05.845Z,101650.52
2018-07-31T20:33:34.303Z,101657.97
2018-07-31T20:36:06.184Z,101654.47
2018-07-31T20:38:34.798Z,101659.20
2018-07-31T20:41:03.334Z,101662.45
2018-07-31T20:43:31.947Z,101659.46
2018-07-31T20:46:00.365Z,101663.93
2018-07-31T20:48:32.493Z,101666.19
2018-07-31T20:51:01.552Z,101663.19
2018-07-31T20:53:30.373Z,101667.03
2018-07-31T20:56:02.091Z,101659.08
2018-07-31T20:58:30.350Z,101668.72
2018-07-31T21:00:59.905Z,101670.14
2018-07-31T21:03:28.447Z,101667.87
2018-07-31T21:05:56.832Z,101672.89
2018-07-31T21:08:25.115Z,101671.77
2018-07-31T21:10:53.620Z,101674.56
2018-07-31T21:13:24.445Z,101669.05
2018-07-31T21:15:52.731Z,101678.14
2018-07-31T21:18:21.579Z,101680.10
2018-07-31T21:20:49.862Z,101680.92
2018-07-31T21:23:18.583Z,101677.35
2018-07-31T21:25:46.956Z,101676.81
2018-07-31T21:28:15.243Z,101680.95
2018-07-31T21:30:43.653Z,101681.77
2018-07-31T21:33:11.957Z,101688.37
2018-07-31T21:35:40.464Z,101693.05
2018-07-31T21:38:08.746Z,101688.64
2018-07-31T21:40:37.089Z,101692.21
2018-07-31T21:43:05.345Z,101692.23
2018-07-31T21:45:33.646Z,101693.59
2018-07-31T21:48:01.980Z,101692.23
2018-07-31T21:50:30.268Z,101693.63
2018-07-31T21:52:58.665Z,101694.17
2018-07-31T21:55:27.287Z,101707.30
2018-07-31T21:57:55.683Z,101706.46
2018-07-31T22:00:24.080Z,101711.41
2018-07-31T22:02:54.154Z,101715.55
2018-07-31T22:05:22.473Z,101712.25
2018-07-31T22:07:50.824Z,101713.05
2018-07-31T22:10:20.765Z,101718.25
2018-07-31T22:12:49.148Z,101717.75
2018-07-31T22:15:17.698Z,101719.67
2018-07-31T22:17:46.032Z,101721.30
2018-07-31T22:20:14.405Z,101728.17
2018-07-31T22:22:43.025Z,101732.04
2018-07-31T22:25:11.392Z,101737.53
2018-07-31T22:27:43.916Z,101738.37
2018-07-31T22:30:12.447Z,101733.62
2018-07-31T22:32:40.765Z,101733.31
2018-07-31T22:35:09.360Z,101728.09
2018-07-31T22:37:37.608Z,101728.67
2018-07-31T22:40:06.145Z,101731.41
2018-07-31T22:42:34.740Z,101731.95
2018-07-31T22:45:03.754Z,101737.66
2018-07-31T22:47:32.364Z,101744.50
2018-07-31T22:50:00.825Z,101748.94
2018-07-31T22:52:29.118Z,101736.18
2018-07-31T22:54:57.665Z,101738.88
2018-07-31T22:57:26.102Z,101735.02
2018-07-31T22:59:54.466Z,101733.65
2018-07-31T23:02:22.793Z,101733.43
2018-07-31T23:04:51.274Z,101733.62
2018-07-31T23:07:19.590Z,101733.63
2018-07-31T23:09:54.996Z,101736.13
2018-07-31T23:12:23.361Z,101730.10
2018-07-31T23:14:51.694Z,101727.59
2018-07-31T23:17:19.981Z,101726.45
2018-07-31T23:19:52.330Z,101728.57
2018-07-31T23:22:32.104Z,101725.08
2018-07-31T23:25:00.713Z,101735.53
2018-07-31T23:27:28.998Z,101732.48
2018-07-31T23:29:57.371Z,101729.52
2018-07-31T23:32:27.860Z,101734.75
2018-07-31T23:34:57.829Z,101732.28
2018-07-31T23:37:26.259Z,101733.92
2018-07-31T23:39:55.621Z,101729.86
2018-07-31T23:42:26.254Z,101733.62
2018-07-31T23:44:55.146Z,101729.50
2018-07-31T23:47:23.448Z,101724.91
2018-07-31T23:49:51.840Z,101737.23
2018-07-31T23:52:20.200Z,101739.53
2018-07-31T23:54:48.692Z,101735.66
2018-07-31T23:57:17.323Z,101741.34
2018-07-31T23:59:45.661Z,101747.95
